createdAt,value
2018-12-15T00:01:27.931Z,7.77
2018-12-15T00:04:02.135Z,7.33
2018-12-15T00:06:35.607Z,7.33
2018-12-15T00:09:10.677Z,6.83
2018-12-15T00:11:46.689Z,6.93
2018-12-15T00:14:19.412Z,6.30
2018-12-15T00:16:52.198Z,6.60
2018-12-15T00:19:25.162Z,7.07
2018-12-15T00:22:00.839Z,7.10
2018-12-15T00:24:33.617Z,6.50
2018-12-15T00:27:06.989Z,6.90
2018-12-15T00:29:39.974Z,6.50
2018-12-15T00:32:12.468Z,7.07
2018-12-15T00:34:45.636Z,6.63
2018-12-15T00:37:18.327Z,6.43
2018-12-15T00:39:51.067Z,6.13
2018-12-15T00:42:31.769Z,7.07
2018-12-15T00:45:08.267Z,6.40
2018-12-15T00:47:40.798Z,6.67
2018-12-15T00:50:16.301Z,6.53
2018-12-15T00:52:48.964Z,6.60
2018-12-15T00:55:21.943Z,6.97
2018-12-15T00:57:55.675Z,6.73
2018-12-15T01:00:28.096Z,6.27
2018-12-15T01:03:00.728Z,6.50
2018-12-15T01:05:36.789Z,6.77
2018-12-15T01:08:10.749Z,7.30
2018-12-15T01:10:46.263Z,6.90
2018-12-15T01:13:20.425Z,6.53
2018-12-15T01:15:54.662Z,7.20
2018-12-15T01:18:27.167Z,6.90
2018-12-15T01:21:01.222Z,6.60
2018-12-15T01:23:33.808Z,7.33
2018-12-15T01:26:08.120Z,7.50
2018-12-15T01:28:43.225Z,7.33
2018-12-15T01:31:15.775Z,7.27
2018-12-15T01:33:48.376Z,7.50
2018-12-15T01:36:21.363Z,7.43
2018-12-15T01:38:53.973Z,7.75
2018-12-15T01:41:27.581Z,7.20
2018-12-15T01:44:00.886Z,7.57
2018-12-15T01:46:33.526Z,7.93
2018-12-15T01:49:06.154Z,7.37
2018-12-15T01:51:39.266Z,7.63
2018-12-15T01:54:11.875Z,7.82
2018-12-15T01:56:44.509Z,8.10
2018-12-15T01:59:19.115Z,7.87
2018-12-15T02:01:51.852Z,6.87
2018-12-15T02:04:24.391Z,7.30
2018-12-15T02:06:57.408Z,7.93
2018-12-15T02:09:31.363Z,8.40
2018-12-15T02:12:04.016Z,8.33
2018-12-15T02:14:36.974Z,8.00
2018-12-15T02:17:09.452Z,8.20
2018-12-15T02:19:42.048Z,8.23
2018-12-15T02:22:16.011Z,8.47
2018-12-15T02:24:48.876Z,8.87
2018-12-15T02:27:21.593Z,9.30
2018-12-15T02:29:54.843Z,9.60
2018-12-15T02:32:28.238Z,9.70
2018-12-15T02:35:01.586Z,10.13
2018-12-15T02:37:36.553Z,11.03
2018-12-15T02:40:09.185Z,10.25
2018-12-15T02:42:41.767Z,10.67
2018-12-15T02:45:17.283Z,10.07
2018-12-15T02:47:49.988Z,10.80
2018-12-15T02:50:24.689Z,11.00
2018-12-15T02:52:57.630Z,11.13
2018-12-15T02:55:31.191Z,10.97
2018-12-15T02:58:04.241Z,10.43
2018-12-15T03:00:37.020Z,10.90
2018-12-15T03:03:09.791Z,10.52
2018-12-15T03:05:42.877Z,10.27
2018-12-15T03:08:15.525Z,9.80
2018-12-15T03:10:48.112Z,10.27
2018-12-15T03:13:21.394Z,10.00
2018-12-15T03:15:54.080Z,10.80
2018-12-15T03:18:26.675Z,10.00
2018-12-15T03:21:03.150Z,10.50
2018-12-15T03:23:35.880Z,10.87
2018-12-15T03:26:08.456Z,10.50
2018-12-15T03:28:41.529Z,12.80
2018-12-15T03:31:13.995Z,12.33
2018-12-15T03:33:46.670Z,11.37
2018-12-15T03:36:19.790Z,9.43
2018-12-15T03:38:52.534Z,10.93
2018-12-15T03:41:25.248Z,9.60
2018-12-15T03:43:58.425Z,9.50
2018-12-15T03:46:30.929Z,9.40
2018-12-15T03:49:03.593Z,9.63
2018-12-15T03:51:37.463Z,10.20
2018-12-15T03:54:10.295Z,9.43
2018-12-15T03:56:43.754Z,8.50
2018-12-15T03:59:23.976Z,9.37
2018-12-15T04:01:56.630Z,8.53
2018-12-15T04:04:30.577Z,9.43
2018-12-15T04:07:03.495Z,9.80
2018-12-15T04:09:36.256Z,10.17
2018-12-15T04:12:08.834Z,9.27
2018-12-15T04:14:43.856Z,9.37
2018-12-15T04:17:17.289Z,10.25
2018-12-15T04:19:50.255Z,8.73
2018-12-15T04:22:23.482Z,9.17
2018-12-15T04:24:56.148Z,9.17
2018-12-15T04:27:28.815Z,8.63
2018-12-15T04:30:09.124Z,9.93
2018-12-15T04:32:45.382Z,10.90
2018-12-15T04:35:18.444Z,10.07
2018-12-15T04:37:51.354Z,9.83
2018-12-15T04:40:24.428Z,10.07
2018-12-15T04:42:58.032Z,10.27
2018-12-15T04:45:32.048Z,9.45
2018-12-15T04:48:10.827Z,9.20
2018-12-15T04:50:44.276Z,9.47
2018-12-15T04:53:17.082Z,8.80
2018-12-15T04:55:50.009Z,9.03
2018-12-15T04:58:25.345Z,9.98
2018-12-15T05:01:00.753Z,9.67
2018-12-15T05:03:33.926Z,9.10
2018-12-15T05:06:06.659Z,9.37
2018-12-15T05:08:40.249Z,9.63
2018-12-15T05:11:12.942Z,9.27
2018-12-15T05:13:46.155Z,9.53
2018-12-15T05:16:20.051Z,19.17
2018-12-15T05:18:52.693Z,9.13
2018-12-15T05:21:25.385Z,9.43
2018-12-15T05:23:58.299Z,10.02
2018-12-15T05:26:31.443Z,9.13
2018-12-15T05:29:05.456Z,10.00
2018-12-15T05:31:38.534Z,9.57
2018-12-15T05:34:11.145Z,10.57
2018-12-15T05:36:44.081Z,9.60
2018-12-15T05:39:17.220Z,9.43
2018-12-15T05:41:50.036Z,9.80
2018-12-15T05:44:22.631Z,9.47
2018-12-15T05:46:59.777Z,9.80
2018-12-15T05:49:36.092Z,10.05
2018-12-15T05:52:09.012Z,10.37
2018-12-15T05:54:41.977Z,10.10
2018-12-15T05:57:14.812Z,9.77
2018-12-15T05:59:47.364Z,9.40
2018-12-15T06:02:21.041Z,9.67
2018-12-15T06:04:54.741Z,9.57
2018-12-15T06:07:27.540Z,9.83
2018-12-15T06:10:02.802Z,10.50
2018-12-15T06:12:37.989Z,9.97
2018-12-15T06:15:13.640Z,10.43
2018-12-15T06:17:46.857Z,10.10
2018-12-15T06:20:20.093Z,9.67
2018-12-15T06:22:52.832Z,9.93
2018-12-15T06:25:26.652Z,10.10
2018-12-15T06:27:59.408Z,10.50
2018-12-15T06:30:32.024Z,9.73
2018-12-15T06:33:04.952Z,10.67
2018-12-15T06:35:37.572Z,10.70
2018-12-15T06:38:10.108Z,9.53
2018-12-15T06:40:43.189Z,9.80
2018-12-15T06:43:16.233Z,10.20
2018-12-15T06:45:49.163Z,10.10
2018-12-15T06:48:22.105Z,9.93
2018-12-15T06:50:56.244Z,10.73
2018-12-15T06:53:28.837Z,10.30
2018-12-15T06:56:03.847Z,10.60
2018-12-15T06:58:37.736Z,10.00
2018-12-15T07:01:10.389Z,10.83
2018-12-15T07:03:43.417Z,10.77
2018-12-15T07:06:16.201Z,11.48
2018-12-15T07:08:49.255Z,10.70
2018-12-15T07:11:22.281Z,11.07
2018-12-15T07:13:55.093Z,10.93
2018-12-15T07:16:27.889Z,11.77
2018-12-15T07:19:00.737Z,11.10
2018-12-15T07:21:35.087Z,11.20
2018-12-15T07:24:07.798Z,10.53
2018-12-15T07:26:44.020Z,10.30
2018-12-15T07:29:17.055Z,10.77
2018-12-15T07:31:51.413Z,10.87
2018-12-15T07:34:27.467Z,10.63
2018-12-15T07:37:00.099Z,10.57
2018-12-15T07:39:33.092Z,10.30
2018-12-15T07:42:06.699Z,10.93
2018-12-15T07:44:39.644Z,11.50
2018-12-15T07:47:14.329Z,10.77
2018-12-15T07:49:47.038Z,10.60
2018-12-15T07:52:20.168Z,11.30
2018-12-15T07:54:53.352Z,11.70
2018-12-15T07:57:26.751Z,11.80
2018-12-15T07:59:59.994Z,12.00
2018-12-15T08:02:34.248Z,11.03
2018-12-15T08:05:07.578Z,12.33
2018-12-15T08:07:40.772Z,11.93
2018-12-15T08:10:22.314Z,12.50
2018-12-15T08:12:56.899Z,12.70
2018-12-15T08:15:31.669Z,12.87
2018-12-15T08:18:04.421Z,12.50
2018-12-15T08:20:37.240Z,12.43
2018-12-15T08:23:11.228Z,12.33
2018-12-15T08:25:45.455Z,12.10
2018-12-15T08:28:18.232Z,12.73
2018-12-15T08:30:51.600Z,12.97
2018-12-15T08:33:24.787Z,13.03
2018-12-15T08:36:00.947Z,13.10
2018-12-15T08:38:34.044Z,13.53
2018-12-15T08:41:07.020Z,13.67
2018-12-15T08:43:41.103Z,12.90
2018-12-15T08:46:15.679Z,13.17
2018-12-15T08:48:48.204Z,12.83
2018-12-15T08:51:22.028Z,13.10
2018-12-15T08:53:56.275Z,12.73
2018-12-15T08:56:30.033Z,13.00
2018-12-15T08:59:04.160Z,13.57
2018-12-15T09:01:37.639Z,14.37
2018-12-15T09:04:11.172Z,13.90
2018-12-15T09:06:43.873Z,13.23
2018-12-15T09:09:18.360Z,13.47
2018-12-15T09:11:51.070Z,13.73
2018-12-15T09:14:23.829Z,13.07
2018-12-15T09:16:57.827Z,13.40
2018-12-15T09:19:30.476Z,12.93
2018-12-15T09:22:03.218Z,12.80
2018-12-15T09:24:36.159Z,13.20
2018-12-15T09:27:10.142Z,13.27
2018-12-15T09:29:43.589Z,12.63
2018-12-15T09:32:18.012Z,13.17
2018-12-15T09:34:50.653Z,13.50
2018-12-15T09:37:25.152Z,12.70
2018-12-15T09:39:58.959Z,13.43
2018-12-15T09:42:34.223Z,13.60
2018-12-15T09:45:08.955Z,13.10
2018-12-15T09:47:42.283Z,12.37
2018-12-15T09:50:14.891Z,13.30
2018-12-15T09:52:48.928Z,12.73
2018-12-15T09:55:21.721Z,12.80
2018-12-15T09:57:57.776Z,12.57
2018-12-15T10:00:31.309Z,13.77
2018-12-15T10:03:08.480Z,13.10
2018-12-15T10:05:41.204Z,12.83
2018-12-15T10:08:16.731Z,13.27
2018-12-15T10:10:50.944Z,13.90
2018-12-15T10:13:23.647Z,12.60
2018-12-15T10:15:57.301Z,12.67
2018-12-15T10:18:30.586Z,14.00
2018-12-15T10:21:04.688Z,13.67
2018-12-15T10:23:39.111Z,13.20
2018-12-15T10:26:12.789Z,12.73
2018-12-15T10:28:47.632Z,12.63
2018-12-15T10:31:26.863Z,13.05
2018-12-15T10:34:01.499Z,12.90
2018-12-15T10:36:37.458Z,12.33
2018-12-15T10:39:11.881Z,12.17
2018-12-15T10:41:45.150Z,12.10
2018-12-15T10:44:21.363Z,13.30
2018-12-15T10:46:54.016Z,13.93
2018-12-15T10:49:30.673Z,12.73
2018-12-15T10:52:09.464Z,13.23
2018-12-15T10:54:42.836Z,12.77
2018-12-15T10:57:16.608Z,13.80
2018-12-15T10:59:53.957Z,13.50
2018-12-15T11:02:27.099Z,13.03
2018-12-15T11:05:01.225Z,13.87
2018-12-15T11:07:35.485Z,14.20
2018-12-15T11:10:11.498Z,12.63
2018-12-15T11:12:50.296Z,13.37
2018-12-15T11:15:23.364Z,13.03
2018-12-15T11:17:58.293Z,14.20
2018-12-15T11:20:31.196Z,14.47
2018-12-15T11:23:03.869Z,13.87
2018-12-15T11:25:39.445Z,13.90
2018-12-15T11:28:30.222Z,13.33
2018-12-15T11:31:04.960Z,13.67
2018-12-15T11:33:39.250Z,15.07
2018-12-15T11:36:12.057Z,15.70
2018-12-15T11:38:44.800Z,13.80
2018-12-15T11:41:18.657Z,15.30
2018-12-15T11:43:52.313Z,15.67
2018-12-15T11:46:25.035Z,13.17
2018-12-15T11:49:01.586Z,11.80
2018-12-15T11:51:36.615Z,12.40
2018-12-15T11:54:10.082Z,12.70
2018-12-15T11:56:46.453Z,12.00
2018-12-15T11:59:20.515Z,12.43
2018-12-15T12:01:55.634Z,13.13
2018-12-15T12:04:29.099Z,13.20
2018-12-15T12:07:04.273Z,13.00
2018-12-15T12:09:37.450Z,13.00
2018-12-15T12:12:10.520Z,12.47
2018-12-15T12:14:45.076Z,13.73
2018-12-15T12:17:19.238Z,12.53
2018-12-15T12:19:51.989Z,12.70
2018-12-15T12:22:24.638Z,13.10
2018-12-15T12:25:03.398Z,11.93
2018-12-15T12:27:36.764Z,12.07
2018-12-15T12:30:14.969Z,11.73
2018-12-15T12:32:50.579Z,12.43
2018-12-15T12:35:25.705Z,12.20
2018-12-15T12:38:01.192Z,10.93
2018-12-15T12:40:33.945Z,12.50
2018-12-15T12:43:06.809Z,11.00
2018-12-15T12:45:39.735Z,11.70
2018-12-15T12:48:13.248Z,10.33
2018-12-15T12:50:45.876Z,10.53
2018-12-15T12:53:19.911Z,10.57
2018-12-15T12:55:52.771Z,11.20
2018-12-15T12:58:25.658Z,11.07
2018-12-15T13:00:58.852Z,11.23
2018-12-15T13:03:33.191Z,11.47
2018-12-15T13:06:06.598Z,10.00
2018-12-15T13:08:40.579Z,9.80
2018-12-15T13:11:14.383Z,10.73
2018-12-15T13:13:50.828Z,10.63
2018-12-15T13:16:24.481Z,10.40
2018-12-15T13:18:57.185Z,10.90
2018-12-15T13:21:30.537Z,11.20
2018-12-15T13:24:03.699Z,10.73
2018-12-15T13:26:40.850Z,10.53
2018-12-15T13:29:19.843Z,11.70
2018-12-15T13:31:52.464Z,11.87
2018-12-15T13:34:25.146Z,11.20
2018-12-15T13:37:01.156Z,11.47
2018-12-15T13:39:39.382Z,10.83
2018-12-15T13:42:13.036Z,14.10
2018-12-15T13:44:53.595Z,11.60
2018-12-15T13:47:26.873Z,10.87
2018-12-15T13:50:00.471Z,11.07
2018-12-15T13:52:33.674Z,11.52
2018-12-15T13:55:07.449Z,11.07
2018-12-15T13:57:43.860Z,11.77
2018-12-15T14:00:20.030Z,11.47
2018-12-15T14:02:52.951Z,11.93
2018-12-15T14:05:26.680Z,11.47
2018-12-15T14:08:01.798Z,10.67
2018-12-15T14:10:37.606Z,10.60
2018-12-15T14:13:12.989Z,10.53
2018-12-15T14:15:47.369Z,11.30
2018-12-15T14:18:22.153Z,11.07
2018-12-15T14:20:54.945Z,11.50
2018-12-15T14:23:27.610Z,10.63
2018-12-15T14:26:04.176Z,11.03
2018-12-15T14:28:39.239Z,11.50
2018-12-15T14:31:12.159Z,11.27
2018-12-15T14:33:48.359Z,11.53
2018-12-15T14:36:25.641Z,12.30
2018-12-15T14:38:59.096Z,10.63
2018-12-15T14:41:34.940Z,10.33
2018-12-15T14:44:07.727Z,10.93
2018-12-15T14:46:43.361Z,10.37
2018-12-15T14:49:16.549Z,10.97
2018-12-15T14:51:50.593Z,10.13
2018-12-15T14:54:23.326Z,10.43
2018-12-15T14:57:00.505Z,11.88
2018-12-15T14:59:34.409Z,10.97
2018-12-15T15:02:07.926Z,11.20
2018-12-15T15:04:41.798Z,10.83
2018-12-15T15:07:16.935Z,11.23
2018-12-15T15:09:54.345Z,11.70
2018-12-15T15:12:28.778Z,10.43
2018-12-15T15:15:03.938Z,11.70
2018-12-15T15:17:39.492Z,11.13
2018-12-15T15:20:13.639Z,11.13
2018-12-15T15:22:46.714Z,11.03
2018-12-15T15:25:19.788Z,11.23
2018-12-15T15:27:54.636Z,11.57
2018-12-15T15:30:29.249Z,11.50
2018-12-15T15:33:02.552Z,10.63
2018-12-15T15:35:37.619Z,11.17
2018-12-15T15:38:10.538Z,11.77
2018-12-15T15:40:43.931Z,12.00
2018-12-15T15:43:22.321Z,12.30
2018-12-15T15:45:56.069Z,11.43
2018-12-15T15:48:29.641Z,10.87
2018-12-15T15:51:03.379Z,12.20
2018-12-15T15:53:36.423Z,13.13
2018-12-15T15:56:11.011Z,11.97
2018-12-15T15:58:44.955Z,11.63
2018-12-15T16:01:19.567Z,12.73
2018-12-15T16:03:52.910Z,12.23
2018-12-15T16:06:26.890Z,11.93
2018-12-15T16:09:04.381Z,12.40
2018-12-15T16:11:40.459Z,12.70
2018-12-15T16:14:15.718Z,13.57
2018-12-15T16:16:49.061Z,13.57
2018-12-15T16:19:23.526Z,15.93
2018-12-15T16:21:57.712Z,12.83
2018-12-15T16:24:30.858Z,11.90
2018-12-15T16:27:03.656Z,13.07
2018-12-15T16:29:37.949Z,11.80
2018-12-15T16:32:13.538Z,12.03
2018-12-15T16:34:47.593Z,12.63
2018-12-15T16:37:24.317Z,12.30
2018-12-15T16:39:57.982Z,12.07
2018-12-15T16:42:33.867Z,12.13
2018-12-15T16:45:14.832Z,11.60
2018-12-15T16:47:48.984Z,12.23
2018-12-15T16:50:22.043Z,12.80
2018-12-15T16:52:58.476Z,12.73
2018-12-15T16:55:31.720Z,12.60
2018-12-15T16:58:05.790Z,12.07
2018-12-15T17:00:40.484Z,13.37
2018-12-15T17:03:13.753Z,12.37
2018-12-15T17:05:47.941Z,14.13
2018-12-15T17:08:20.944Z,17.53
2018-12-15T17:10:54.452Z,14.35
2018-12-15T17:13:28.777Z,11.73
2018-12-15T17:16:01.600Z,12.17
2018-12-15T17:18:35.978Z,12.00
2018-12-15T17:21:09.176Z,11.43
2018-12-15T17:23:43.276Z,10.87
2018-12-15T17:26:17.303Z,12.13
2018-12-15T17:28:52.012Z,11.40
2018-12-15T17:31:27.852Z,12.23
2018-12-15T17:34:04.229Z,12.33
2018-12-15T17:36:41.850Z,12.00
2018-12-15T17:39:16.368Z,12.53
2018-12-15T17:41:53.863Z,13.90
2018-12-15T17:44:29.461Z,13.27
2018-12-15T17:47:03.892Z,12.87
2018-12-15T17:49:37.853Z,13.13
2018-12-15T17:52:10.771Z,13.63
2018-12-15T17:54:43.679Z,14.77
2018-12-15T17:57:19.342Z,13.60
2018-12-15T17:59:58.387Z,14.38
2018-12-15T18:02:32.351Z,14.40
2018-12-15T18:05:06.202Z,14.60
2018-12-15T18:07:39.091Z,13.57
2018-12-15T18:10:12.820Z,14.20
2018-12-15T18:12:46.046Z,14.37
2018-12-15T18:15:23.967Z,14.90
2018-12-15T18:18:00.470Z,13.90
2018-12-15T18:20:38.827Z,18.00
2018-12-15T18:23:12.246Z,14.07
2018-12-15T18:25:47.075Z,14.93
2018-12-15T18:28:21.431Z,13.97
2018-12-15T18:30:55.607Z,14.23
2018-12-15T18:33:29.732Z,15.73
2018-12-15T18:36:03.728Z,15.60
2018-12-15T18:38:36.411Z,15.07
2018-12-15T18:41:09.668Z,15.23
2018-12-15T18:43:42.412Z,15.27
2018-12-15T18:46:16.010Z,14.80
2018-12-15T18:48:55.092Z,14.13
2018-12-15T18:51:35.533Z,14.10
2018-12-15T18:54:20.025Z,14.87
2018-12-15T18:56:53.555Z,14.70
2018-12-15T18:59:27.502Z,13.63
2018-12-15T19:02:03.500Z,14.70
2018-12-15T19:04:39.100Z,14.23
2018-12-15T19:07:12.346Z,14.90
2018-12-15T19:09:49.084Z,13.43
2018-12-15T19:12:36.807Z,14.33
2018-12-15T19:15:19.703Z,14.50
2018-12-15T19:17:57.562Z,14.87
2018-12-15T19:20:31.768Z,14.87
2018-12-15T19:23:06.035Z,14.90
2018-12-15T19:25:41.759Z,15.38
2018-12-15T19:28:16.647Z,15.20
2018-12-15T19:30:49.758Z,14.20
2018-12-15T19:33:22.639Z,15.07
2018-12-15T19:35:55.800Z,15.13
2018-12-15T19:38:30.826Z,15.27
2018-12-15T19:41:04.683Z,15.20
2018-12-15T19:43:39.041Z,14.75
2018-12-15T19:46:26.302Z,14.67
2018-12-15T19:49:02.170Z,14.27
2018-12-15T19:51:38.046Z,15.13
2018-12-15T19:54:13.106Z,14.07
2018-12-15T19:56:47.398Z,15.80
2018-12-15T19:59:20.217Z,14.90
2018-12-15T20:01:54.782Z,14.73
2018-12-15T20:04:29.872Z,15.03
2018-12-15T20:07:06.998Z,15.20
2018-12-15T20:09:41.857Z,16.27
2018-12-15T20:12:16.346Z,15.37
2018-12-15T20:14:49.737Z,15.27
2018-12-15T20:17:24.717Z,15.67
2018-12-15T20:19:57.640Z,16.20
2018-12-15T20:22:32.152Z,16.10
2018-12-15T20:25:06.547Z,15.87
2018-12-15T20:27:39.238Z,15.40
2018-12-15T20:30:14.612Z,15.03
2018-12-15T20:32:50.954Z,15.75
2018-12-15T20:35:23.855Z,15.70
2018-12-15T20:37:59.583Z,15.83
2018-12-15T20:40:34.180Z,15.57
2018-12-15T20:43:08.404Z,15.60
2018-12-15T20:45:49.106Z,15.93
2018-12-15T20:48:25.263Z,15.20
2018-12-15T20:50:58.644Z,14.50
2018-12-15T20:53:39.755Z,15.33
2018-12-15T20:56:12.932Z,14.80
2018-12-15T20:58:48.548Z,14.97
2018-12-15T21:01:23.835Z,15.23
2018-12-15T21:04:01.089Z,15.67
2018-12-15T21:06:38.200Z,15.87
2018-12-15T21:09:15.734Z,15.57
2018-12-15T21:11:49.725Z,15.47
2018-12-15T21:14:27.791Z,15.03
2018-12-15T21:17:00.702Z,15.87
2018-12-15T21:19:37.517Z,16.10
2018-12-15T21:22:15.567Z,15.53
2018-12-15T21:24:51.511Z,16.23
2018-12-15T21:27:25.817Z,14.43
2018-12-15T21:30:03.645Z,14.83
2018-12-15T21:32:36.346Z,14.90
2018-12-15T21:35:11.057Z,14.93
2018-12-15T21:37:45.220Z,14.83
2018-12-15T21:40:19.029Z,14.48
2018-12-15T21:42:53.017Z,14.23
2018-12-15T21:45:27.330Z,14.50
2018-12-15T21:48:00.554Z,15.20
2018-12-15T21:50:42.294Z,14.13
2018-12-15T21:53:16.773Z,14.77
2018-12-15T21:55:50.456Z,14.37
2018-12-15T21:58:24.360Z,14.47
2018-12-15T22:00:58.187Z,13.43
2018-12-15T22:03:32.674Z,13.67
2018-12-15T22:06:06.917Z,14.83
2018-12-15T22:08:42.061Z,14.00
2018-12-15T22:11:15.942Z,13.97
2018-12-15T22:13:49.254Z,14.67
2018-12-15T22:16:25.393Z,14.00
2018-12-15T22:19:00.209Z,13.63
2018-12-15T22:21:37.277Z,13.97
2018-12-15T22:24:10.093Z,13.27
2018-12-15T22:26:43.231Z,14.70
2018-12-15T22:29:17.028Z,14.07
2018-12-15T22:31:51.596Z,14.23
2018-12-15T22:34:26.258Z,13.80
2018-12-15T22:36:58.809Z,14.13
2018-12-15T22:39:32.754Z,12.33
2018-12-15T22:42:09.398Z,13.23
2018-12-15T22:44:43.127Z,13.83
2018-12-15T22:47:16.118Z,13.23
2018-12-15T22:49:52.502Z,13.63
2018-12-15T22:52:26.126Z,13.00
2018-12-15T22:55:01.529Z,13.43
2018-12-15T22:57:37.701Z,13.40
2018-12-15T23:00:15.655Z,14.27
2018-12-15T23:02:51.141Z,14.30
2018-12-15T23:05:27.951Z,14.50
2018-12-15T23:08:06.294Z,14.17
2018-12-15T23:10:39.145Z,13.70
2018-12-15T23:13:12.232Z,13.93
2018-12-15T23:15:49.359Z,14.00
2018-12-15T23:18:23.006Z,13.93
2018-12-15T23:20:58.105Z,13.83
2018-12-15T23:23:31.658Z,14.50
2018-12-15T23:26:06.727Z,14.37
2018-12-15T23:28:40.917Z,14.90
2018-12-15T23:31:14.172Z,14.90
2018-12-15T23:33:47.336Z,14.73
2018-12-15T23:36:23.082Z,15.77
2018-12-15T23:38:55.935Z,15.00
2018-12-15T23:41:28.793Z,15.13
2018-12-15T23:44:03.257Z,13.93
2018-12-15T23:46:35.880Z,14.00
2018-12-15T23:49:10.879Z,14.30
2018-12-15T23:51:44.936Z,14.80
2018-12-15T23:54:19.961Z,14.97
2018-12-15T23:56:53.281Z,15.20
2018-12-15T23:59:26.405Z,14.83
